Time;durP1;ratioP1;P1;durP2;ratioP2;P2;SDS_P1;SDS_P2;PMS_P1;PMS_P2;Temp;Humidity;BMP_temperature;BMP_pressure;BME280_temperature;BME280_humidity;BME280_pressure;Samples;Min_cycle;Max_cycle;Signal;HPM_P1;HPM_P2
2021/06/22 00:00:42;;;;;;;13.03;6.47;;;;;;;20.84;100.00;100777.65;1742383;82;20884;-76
2021/06/22 00:03:09;;;;;;;12.53;6.83;;;;;;;20.84;100.00;100785.07;1742222;82;21114;-79
2021/06/22 00:05:36;;;;;;;15.23;7.17;;;;;;;20.86;100.00;100789.71;1742095;82;21533;-79
2021/06/22 00:08:03;;;;;;;14.25;7.47;;;;;;;20.89;100.00;100789.87;1742408;82;20924;-79
2021/06/22 00:10:30;;;;;;;12.50;6.47;;;;;;;20.91;100.00;100790.52;1742058;82;21086;-79
2021/06/22 00:12:57;;;;;;;12.37;7.03;;;;;;;20.94;100.00;100792.82;1742283;82;21014;-77
2021/06/22 00:15:27;;;;;;;12.58;7.12;;;;;;;20.95;100.00;100801.08;1742236;82;21129;-78
2021/06/22 00:17:54;;;;;;;17.05;7.47;;;;;;;20.95;100.00;100800.59;1742329;82;20972;-79
2021/06/22 00:20:22;;;;;;;13.98;6.50;;;;;;;20.95;100.00;100805.86;1742115;82;20956;-78
2021/06/22 00:22:49;;;;;;;22.02;7.47;;;;;;;20.95;100.00;100805.86;1742264;82;20987;-79
2021/06/22 00:25:17;;;;;;;11.12;7.03;;;;;;;20.97;100.00;100805.69;1742428;82;20971;-78
2021/06/22 00:27:43;;;;;;;17.02;6.83;;;;;;;20.99;100.00;100816.92;1742323;82;21750;-78
2021/06/22 00:30:11;;;;;;;16.25;7.12;;;;;;;21.02;100.00;100823.19;1742234;82;20889;-80
2021/06/22 00:32:38;;;;;;;20.32;6.87;;;;;;;21.02;100.00;100825.33;1742459;82;21581;-80
2021/06/22 00:35:07;;;;;;;16.05;6.90;;;;;;;21.00;100.00;100823.83;1742463;82;20971;-79
2021/06/22 00:37:34;;;;;;;17.75;6.75;;;;;;;20.98;100.00;100826.64;1742471;82;21059;-82
2021/06/22 00:40:01;;;;;;;17.00;6.50;;;;;;;20.97;100.00;100822.34;1742380;82;21109;-82
2021/06/22 00:42:28;;;;;;;18.82;6.53;;;;;;;20.96;100.00;100826.48;1742486;82;21027;-83
2021/06/22 00:44:58;;;;;;;21.85;6.83;;;;;;;20.96;100.00;100822.53;1743860;82;21047;-78
2021/06/22 00:47:27;;;;;;;16.95;5.92;;;;;;;20.96;100.00;100821.20;1743411;82;20967;-81
2021/06/22 00:49:54;;;;;;;17.37;6.08;;;;;;;20.97;100.00;100821.03;1743904;82;20987;-77
2021/06/22 00:52:24;;;;;;;16.07;6.15;;;;;;;20.98;100.00;100820.53;1743876;82;21151;-80
2021/06/22 00:54:52;;;;;;;20.52;6.67;;;;;;;20.98;100.00;100825.33;1742889;82;20975;-81
2021/06/22 00:57:19;;;;;;;20.35;5.97;;;;;;;20.99;100.00;100830.94;1742317;82;20995;-81
2021/06/22 00:59:46;;;;;;;16.73;6.05;;;;;;;21.00;100.00;100835.70;1742356;82;20940;-79
2021/06/22 01:02:14;;;;;;;17.57;5.95;;;;;;;21.01;100.00;100841.31;1742443;82;21660;-78
2021/06/22 01:04:42;;;;;;;15.85;6.50;;;;;;;21.00;100.00;100844.93;1742328;82;21138;-77
2021/06/22 01:07:16;;;;;;;24.18;6.78;;;;;;;20.98;100.00;100850.39;1739083;82;20904;-78
2021/06/22 01:09:44;;;;;;;29.30;7.20;;;;;;;20.97;100.00;100837.34;1742536;82;21441;-82
2021/06/22 01:12:12;;;;;;;22.90;6.40;;;;;;;20.96;100.00;100841.80;1742677;82;20907;-83
2021/06/22 01:14:42;;;;;;;18.32;6.90;;;;;;;20.95;100.00;100832.73;1742558;81;21118;-79
2021/06/22 01:17:10;;;;;;;25.57;6.55;;;;;;;20.95;100.00;100827.46;1706661;82;21791;-81
2021/06/22 01:19:37;;;;;;;24.65;5.58;;;;;;;20.94;100.00;100825.80;1742195;82;20984;-81
2021/06/22 01:22:05;;;;;;;25.27;6.55;;;;;;;20.96;100.00;100830.44;1742294;82;20976;-80
2021/06/22 01:24:45;;;;;;;21.43;5.93;;;;;;;20.98;100.00;100831.09;1740743;82;21039;-79
2021/06/22 01:27:13;;;;;;;19.90;7.08;;;;;;;20.98;100.00;100841.16;1706432;82;21091;-79
2021/06/22 01:29:40;;;;;;;23.60;6.55;;;;;;;21.00;100.00;100835.70;1742132;82;21155;-80
2021/06/22 01:32:08;;;;;;;29.90;6.47;;;;;;;21.00;100.00;100818.05;1742133;82;21594;-80
2021/06/22 01:34:37;;;;;;;25.80;6.45;;;;;;;21.03;100.00;100819.53;1741351;82;21018;-79
2021/06/22 01:37:07;;;;;;;31.65;7.20;;;;;;;21.06;100.00;100819.20;1742193;82;20972;-78
2021/06/22 01:39:36;;;;;;;25.32;6.70;;;;;;;21.09;100.00;100814.45;1740506;82;21549;-84
2021/06/22 01:42:04;;;;;;;31.55;7.80;;;;;;;21.12;100.00;100810.69;1731899;82;21810;-79
2021/06/22 01:44:33;;;;;;;29.40;6.78;;;;;;;21.12;100.00;100813.33;1704944;82;21443;-81
2021/06/22 01:47:01;;;;;;;29.20;6.62;;;;;;;21.13;100.00;100827.32;1732110;82;20904;-81
2021/06/22 01:49:29;;;;;;;27.82;6.00;;;;;;;21.13;100.00;100825.51;1731886;82;20944;-82
2021/06/22 01:51:57;;;;;;;30.68;6.45;;;;;;;21.16;100.00;100825.67;1731885;82;20994;-81
2021/06/22 01:54:25;;;;;;;26.30;6.28;;;;;;;21.20;100.00;100822.55;1732206;82;21074;-81
2021/06/22 01:56:53;;;;;;;29.87;6.20;;;;;;;21.21;100.00;100819.42;1731964;82;21760;-80
2021/06/22 01:59:21;;;;;;;31.05;6.30;;;;;;;21.23;100.00;100819.58;1732179;82;20995;-80
2021/06/22 02:01:53;;;;;;;24.60;5.87;;;;;;;21.23;100.00;100809.50;1729990;82;20987;-81
2021/06/22 02:04:24;;;;;;;21.85;5.95;;;;;;;21.20;100.00;100804.07;1730928;82;21496;-80
2021/06/22 02:06:52;;;;;;;30.50;7.97;;;;;;;21.17;100.00;100785.93;1731956;82;21598;-81
2021/06/22 02:09:27;;;;;;;21.45;6.22;;;;;;;21.14;100.00;100782.30;1700029;81;20980;-80
2021/06/22 02:11:54;;;;;;;31.07;6.92;;;;;;;21.12;100.00;100791.39;1732128;82;21551;-81
2021/06/22 02:14:23;;;;;;;26.15;6.28;;;;;;;21.10;100.00;100798.96;1732041;82;21549;-80
2021/06/22 02:16:50;;;;;;;23.12;6.78;;;;;;;21.13;100.00;100798.29;1704500;82;21099;-82
2021/06/22 02:19:19;;;;;;;27.73;6.30;;;;;;;21.15;100.00;100804.25;1732243;82;21140;-81
2021/06/22 02:21:46;;;;;;;31.77;6.05;;;;;;;21.18;100.00;100810.52;1731974;82;21043;-80
2021/06/22 02:24:13;;;;;;;28.92;6.30;;;;;;;21.19;100.00;100814.29;1732123;82;20896;-79
2021/06/22 02:26:41;;;;;;;33.78;7.15;;;;;;;21.16;100.00;100819.07;1732069;82;21479;-82
2021/06/22 02:29:07;;;;;;;24.90;6.22;;;;;;;21.14;100.00;100818.42;1732099;82;20937;-83
2021/06/22 02:31:34;;;;;;;24.52;6.50;;;;;;;21.17;100.00;100820.73;1731877;82;21114;-82
2021/06/22 02:34:02;;;;;;;23.15;7.58;;;;;;;21.18;100.00;100819.75;1731981;82;20928;-82
2021/06/22 02:36:30;;;;;;;23.80;6.67;;;;;;;21.19;100.00;100820.09;1732312;82;20940;-81
2021/06/22 02:38:57;;;;;;;26.07;6.40;;;;;;;21.19;100.00;100824.84;1732320;82;20984;-82
2021/06/22 02:41:25;;;;;;;27.90;6.30;;;;;;;21.17;100.00;100828.16;1739703;82;20991;-79
2021/06/22 02:43:54;;;;;;;24.32;8.00;;;;;;;21.16;100.00;100830.45;1741041;82;21147;-77
2021/06/22 02:46:20;;;;;;;41.08;8.05;;;;;;;21.12;100.00;100822.56;1743395;82;21014;-77
2021/06/22 02:48:49;;;;;;;40.75;8.93;;;;;;;21.07;100.00;100817.73;1743491;82;20971;-83
2021/06/22 02:51:15;;;;;;;35.80;8.15;;;;;;;21.02;100.00;100808.19;1707753;82;21035;-83
2021/06/22 02:53:46;;;;;;;34.60;7.20;;;;;;;20.99;100.00;100805.05;1743707;82;20987;-80
2021/06/22 02:56:14;;;;;;;27.22;7.30;;;;;;;20.95;100.00;100808.99;1743046;82;21138;-82
2021/06/22 02:58:42;;;;;;;29.55;6.90;;;;;;;20.95;100.00;100808.50;1742132;82;20923;-81
2021/06/22 03:01:10;;;;;;;29.95;7.17;;;;;;;20.96;100.00;100799.58;1741665;82;20896;-80
2021/06/22 03:03:37;;;;;;;32.20;8.08;;;;;;;21.00;100.00;100801.40;1742227;82;20936;-81
2021/06/22 03:06:06;;;;;;;37.85;10.08;;;;;;;21.03;100.00;100805.02;1741742;82;21002;-82
2021/06/22 03:08:34;;;;;;;32.67;8.25;;;;;;;21.07;100.00;100810.30;1739875;82;21122;-82
2021/06/22 03:11:03;;;;;;;30.43;7.00;;;;;;;21.11;100.00;100816.95;1742289;82;20914;-83
2021/06/22 03:13:30;;;;;;;30.97;7.00;;;;;;;21.13;100.00;100816.27;1742337;82;21094;-83
2021/06/22 03:15:57;;;;;;;42.62;7.80;;;;;;;21.15;100.00;100818.27;1742281;82;21541;-83
2021/06/22 03:18:24;;;;;;;35.70;6.60;;;;;;;21.17;100.00;100816.77;1741296;82;20972;-83
2021/06/22 03:20:53;;;;;;;29.92;6.33;;;;;;;21.20;100.00;100821.23;1740927;82;21999;-83
2021/06/22 03:23:21;;;;;;;33.73;7.90;;;;;;;21.23;100.00;100814.78;1704952;82;22114;-83
2021/06/22 03:25:47;;;;;;;25.35;6.22;;;;;;;21.25;100.00;100816.27;1741264;82;21065;-84
2021/06/22 03:28:14;;;;;;;26.27;6.40;;;;;;;21.28;100.00;100823.05;1742088;82;20940;-83
2021/06/22 03:30:49;;;;;;;32.48;7.35;;;;;;;21.31;100.00;100834.10;1742110;82;20928;-83
2021/06/22 03:33:18;;;;;;;31.52;7.00;;;;;;;21.32;100.00;100840.18;1742044;82;21777;-83
2021/06/22 03:35:45;;;;;;;28.40;7.12;;;;;;;21.33;100.00;100833.92;1742347;82;20881;-84
2021/06/22 03:38:11;;;;;;;28.95;7.08;;;;;;;21.35;100.00;100834.08;1706464;82;20943;-84
2021/06/22 03:40:38;;;;;;;32.93;6.65;;;;;;;21.37;100.00;100845.31;1747596;81;21481;-84
2021/06/22 03:43:06;;;;;;;32.67;6.58;;;;;;;21.39;100.00;100845.12;1763728;81;20935;-84
2021/06/22 03:45:35;;;;;;;28.90;6.47;;;;;;;21.41;100.00;100851.89;1732649;81;21106;-83
2021/06/22 03:48:02;;;;;;;17.85;6.62;;;;;;;21.43;100.00;100862.30;1763690;81;21477;-82
2021/06/22 03:50:30;;;;;;;36.35;7.87;;;;;;;21.43;100.00;100865.77;1763985;81;21046;-85
2021/06/22 03:52:56;;;;;;;32.75;7.53;;;;;;;21.45;100.00;100870.87;1763845;81;20983;-83
2021/06/22 03:55:27;;;;;;;33.40;7.67;;;;;;;21.46;100.00;100875.16;1763946;81;20970;-84
2021/06/22 03:58:08;;;;;;;39.75;9.13;;;;;;;21.48;100.00;100875.33;1762184;81;21105;-83
2021/06/22 04:00:48;;;;;;;23.55;7.80;;;;;;;21.51;100.00;100872.84;1762175;81;20927;-84
2021/06/22 04:03:15;;;;;;;25.70;7.53;;;;;;;21.52;100.00;100878.46;1763511;81;21030;-84
2021/06/22 04:06:01;;;;;;;35.63;7.90;;;;;;;21.53;100.00;100876.16;1761492;81;21564;-84
2021/06/22 04:08:29;;;;;;;39.15;8.33;;;;;;;21.54;100.00;100872.50;1763492;81;21070;-84
2021/06/22 04:10:59;;;;;;;21.80;6.70;;;;;;;21.52;100.00;100868.73;1763397;81;20879;-84
2021/06/22 04:13:26;;;;;;;27.67;7.58;;;;;;;21.51;100.00;100870.20;1731010;81;20982;-85
2021/06/22 04:15:56;;;;;;;20.77;6.95;;;;;;;21.49;100.00;100873.52;1764020;81;21684;-80
2021/06/22 04:18:23;;;;;;;20.52;7.20;;;;;;;21.48;100.00;100878.45;1763944;81;20907;-85
2021/06/22 04:20:52;;;;;;;29.00;8.63;;;;;;;21.44;100.00;100877.96;1763883;81;20986;-81
2021/06/22 04:23:20;;;;;;;24.57;7.72;;;;;;;21.43;100.00;100873.69;1763583;81;21077;-82
2021/06/22 04:25:49;;;;;;;24.23;7.85;;;;;;;21.45;100.00;100877.47;1763567;81;20983;-80
2021/06/22 04:28:17;;;;;;;23.32;7.97;;;;;;;21.45;100.00;100873.51;1763626;81;20982;-81
2021/06/22 04:30:44;;;;;;;19.73;7.70;;;;;;;21.44;100.00;100874.00;1763702;81;20955;-81
2021/06/22 04:33:11;;;;;;;16.37;7.87;;;;;;;21.43;100.00;100868.41;1763650;81;20844;-81
2021/06/22 04:35:38;;;;;;;20.00;7.58;;;;;;;21.43;100.00;100868.41;1763802;81;21110;-81
2021/06/22 04:38:06;;;;;;;25.10;7.97;;;;;;;21.45;100.00;100870.87;1763699;81;21544;-80
2021/06/22 04:40:34;;;;;;;21.50;7.65;;;;;;;21.44;100.00;100874.52;1762307;81;20954;-80
2021/06/22 04:43:00;;;;;;;19.42;7.47;;;;;;;21.44;100.00;100877.96;1745215;82;20920;-80
2021/06/22 04:45:28;;;;;;;15.45;7.92;;;;;;;21.45;100.00;100861.14;1745273;82;20979;-80
2021/06/22 04:47:57;;;;;;;16.15;7.85;;;;;;;21.47;100.00;100860.49;1745308;80;21112;-79
2021/06/22 04:50:24;;;;;;;18.37;7.53;;;;;;;21.48;100.00;100854.20;1745431;82;20983;-79
2021/06/22 04:52:50;;;;;;;17.15;9.25;;;;;;;21.48;100.00;100848.92;1745444;82;21008;-79
2021/06/22 04:55:22;;;;;;;21.12;8.43;;;;;;;21.48;100.00;100845.45;1745633;82;20987;-79
2021/06/22 04:57:46;;;;;;;15.55;7.80;;;;;;;21.43;100.00;100849.09;1744622;82;20988;-81
2021/06/22 05:00:14;;;;;;;20.60;7.65;;;;;;;21.41;100.00;100848.45;1744950;82;21162;-79
2021/06/22 05:02:41;;;;;;;17.10;7.00;;;;;;;21.37;100.00;100843.99;1744818;82;20888;-79
2021/06/22 05:05:09;;;;;;;12.68;6.67;;;;;;;21.39;100.00;100848.60;1744818;82;21113;-80
2021/06/22 05:07:36;;;;;;;17.15;6.75;;;;;;;21.38;100.00;100843.50;1722210;82;21517;-81
2021/06/22 05:10:04;;;;;;;13.80;7.28;;;;;;;21.39;100.00;100847.77;1745009;82;20892;-81
2021/06/22 05:12:31;;;;;;;20.15;6.90;;;;;;;21.39;100.00;100848.60;1721961;81;21088;-83
2021/06/22 05:14:57;;;;;;;15.08;6.85;;;;;;;21.41;100.00;100851.89;1744851;82;20988;-85
2021/06/22 05:17:24;;;;;;;14.53;6.92;;;;;;;21.40;100.00;100854.22;1744990;82;20972;-89
2021/06/22 05:19:53;;;;;;;22.13;8.60;;;;;;;21.36;100.00;100854.70;1744726;82;21035;-89
2021/06/22 05:22:37;;;;;;;17.65;7.60;;;;;;;21.32;100.00;100850.73;1745566;82;21000;-89
2021/06/22 05:24:56;;;;;;;22.98;7.92;;;;;;;21.30;100.00;100844.81;1719120;82;20983;-88
2021/06/22 05:27:24;;;;;;;25.97;8.03;;;;;;;21.28;100.00;100844.16;1745055;82;21518;-89
2021/06/22 05:29:50;;;;;;;26.30;7.45;;;;;;;21.27;100.00;100841.19;1745291;82;20896;-88
2021/06/22 05:32:17;;;;;;;31.35;7.20;;;;;;;21.27;100.00;100836.73;1745111;82;21560;-88
2021/06/22 05:34:46;;;;;;;22.02;7.08;;;;;;;21.30;100.00;100836.89;1744969;82;20979;-88
2021/06/22 05:37:12;;;;;;;27.32;6.62;;;;;;;21.30;100.00;100839.05;1745396;82;21749;-88
2021/06/22 05:39:39;;;;;;;19.25;8.63;;;;;;;21.32;100.00;100838.38;1745099;82;21011;-87
2021/06/22 05:42:06;;;;;;;27.15;10.10;;;;;;;21.35;100.00;100833.25;1743395;81;21051;-85
2021/06/22 05:44:34;;;;;;;29.20;10.15;;;;;;;21.37;100.00;100824.20;1742402;82;20901;-84
2021/06/22 05:47:03;;;;;;;31.17;9.78;;;;;;;21.37;100.00;100828.64;1742790;82;20886;-87
2021/06/22 05:49:30;;;;;;;33.35;9.90;;;;;;;21.33;100.00;100834.75;1742561;82;21208;-84
2021/06/22 05:51:57;;;;;;;30.65;9.88;;;;;;;21.29;100.00;100838.70;1742321;82;21510;-82
2021/06/22 05:54:26;;;;;;;25.10;10.43;;;;;;;21.28;100.00;100846.31;1742458;82;21011;-84
2021/06/22 05:56:53;;;;;;;25.17;8.95;;;;;;;21.35;100.00;100857.84;1742322;82;20956;-84
2021/06/22 05:59:21;;;;;;;27.22;9.15;;;;;;;21.42;100.00;100868.56;1720617;82;21007;-83
2021/06/22 06:01:48;;;;;;;17.37;9.40;;;;;;;21.51;100.00;100868.88;1721194;82;21303;-85
2021/06/22 06:04:15;;;;;;;24.72;8.93;;;;;;;21.62;100.00;100868.55;1730469;82;20919;-87
2021/06/22 06:06:47;;;;;;;20.45;8.58;;;;;;;21.70;100.00;100869.84;1742988;81;21003;-85
2021/06/22 06:09:26;;;;;;;21.05;8.13;;;;;;;21.74;100.00;100866.38;1712718;82;21034;-85
2021/06/22 06:11:53;;;;;;;22.00;8.95;;;;;;;21.79;100.00;100860.94;1683251;83;20958;-84
2021/06/22 06:14:22;;;;;;;26.37;8.30;;;;;;;21.88;100.00;100858.59;1706213;82;21786;-83
2021/06/22 06:16:52;;;;;;;24.80;8.25;;;;;;;21.94;100.00;100860.59;1690467;82;21038;-84
2021/06/22 06:19:22;;;;;;;19.80;7.87;;;;;;;21.99;100.00;100856.09;1697139;82;21530;-82
2021/06/22 06:21:53;;;;;;;19.40;8.15;;;;;;;22.05;100.00;100858.05;1712084;83;21098;-83
2021/06/22 06:24:20;;;;;;;27.58;9.80;;;;;;;22.13;100.00;100868.13;1711631;83;21621;-82
2021/06/22 06:27:03;;;;;;;20.37;8.90;;;;;;;22.22;100.00;100862.30;1711481;82;21138;-82
2021/06/22 06:29:39;;;;;;;21.23;8.08;;;;;;;22.29;100.00;100854.02;1710646;83;21213;-80
2021/06/22 06:31:58;;;;;;;20.08;7.30;;;;;;;22.35;100.00;100863.07;1711239;83;21098;-79
2021/06/22 06:34:27;;;;;;;13.28;7.42;;;;;;;22.40;100.00;100862.88;1712858;82;21043;-80
2021/06/22 06:36:54;;;;;;;14.28;8.23;;;;;;;22.43;100.00;100863.05;1704781;82;21481;-78
2021/06/22 06:39:23;;;;;;;14.35;7.67;;;;;;;22.48;100.00;100859.38;1707663;84;21118;-80
2021/06/22 06:41:50;;;;;;;14.63;5.95;;;;;;;22.55;100.00;100862.98;1708782;83;20954;-81
2021/06/22 06:44:17;;;;;;;13.50;5.78;;;;;;;22.59;100.00;100864.29;1710644;83;20960;-80
2021/06/22 06:46:43;;;;;;;13.18;6.80;;;;;;;22.62;100.00;100863.94;1710744;83;21068;-79
2021/06/22 06:49:10;;;;;;;13.32;7.17;;;;;;;22.69;100.00;100866.75;1711156;83;20902;-81
2021/06/22 06:51:37;;;;;;;10.78;5.83;;;;;;;22.75;100.00;100868.17;1711210;83;21120;-80
2021/06/22 06:54:04;;;;;;;14.38;4.87;;;;;;;22.77;100.00;100862.22;1711195;83;21023;-81
2021/06/22 06:56:31;;;;;;;11.88;4.90;;;;;;;22.80;100.00;100864.52;1711081;83;20977;-81
2021/06/22 06:58:58;;;;;;;13.13;5.58;;;;;;;22.89;100.00;100862.62;1711297;83;21126;-79
2021/06/22 07:01:30;;;;;;;13.78;6.17;;;;;;;22.92;100.00;100859.13;1710762;83;20989;-81
2021/06/22 07:04:01;;;;;;;9.75;4.35;;;;;;;22.97;100.00;100864.73;1710610;83;21534;-79
2021/06/22 07:06:29;;;;;;;8.38;4.17;;;;;;;23.02;100.00;100869.48;1676145;85;21810;-81
2021/06/22 07:08:58;;;;;;;12.68;4.20;;;;;;;23.04;100.00;100882.86;1662389;85;21033;-79
2021/06/22 07:11:24;;;;;;;13.15;5.00;;;;;;;23.05;100.00;100876.58;1650687;86;21045;-79
2021/06/22 07:13:54;;;;;;;15.55;5.95;;;;;;;23.08;100.00;100882.02;1660689;86;21543;-79
2021/06/22 07:16:22;;;;;;;13.62;5.25;;;;;;;23.09;100.00;100879.20;1641162;87;21242;-80
2021/06/22 07:18:51;;;;;;;19.55;5.62;;;;;;;23.13;100.00;100881.80;1664376;86;21026;-80
2021/06/22 07:21:19;;;;;;;12.07;4.95;;;;;;;23.10;100.00;100876.86;1647125;86;21057;-80
2021/06/22 07:23:46;;;;;;;15.70;4.85;;;;;;;23.10;100.00;100880.83;1641367;87;21615;-79
2021/06/22 07:26:13;;;;;;;13.32;5.10;;;;;;;23.12;100.00;100880.67;1641363;87;21069;-80
2021/06/22 07:28:41;;;;;;;17.92;5.78;;;;;;;23.15;100.00;100881.64;1641372;87;21169;-78
2021/06/22 07:31:09;;;;;;;14.95;5.60;;;;;;;23.15;100.00;100870.55;1641361;87;21032;-79
2021/06/22 07:33:38;;;;;;;10.50;5.62;;;;;;;23.08;100.00;100864.80;1641477;87;21033;-79
2021/06/22 07:36:08;;;;;;;9.65;4.75;;;;;;;23.06;100.00;100878.73;1641525;87;20993;-80
2021/06/22 07:38:37;;;;;;;12.35;5.60;;;;;;;23.02;100.00;100876.11;1641261;87;20945;-80
2021/06/22 07:41:04;;;;;;;18.52;6.78;;;;;;;22.97;100.00;100871.85;1641444;87;21388;-80
2021/06/22 07:43:33;;;;;;;16.52;6.25;;;;;;;22.92;100.00;100884.28;1628901;87;21506;-84
2021/06/22 07:46:00;;;;;;;19.05;6.12;;;;;;;22.93;100.00;100893.88;1627470;88;20997;-79
2021/06/22 07:48:28;;;;;;;10.82;5.70;;;;;;;22.97;100.00;100894.34;1627407;88;21049;-80
2021/06/22 07:50:57;;;;;;;14.68;5.47;;;;;;;23.01;100.00;100904.39;1627348;88;20990;-81
2021/06/22 07:53:33;;;;;;;46.73;7.78;;;;;;;23.06;100.00;100904.70;1629909;86;21897;-80
2021/06/22 07:56:00;;;;;;;48.28;8.90;;;;;;;23.13;100.00;100903.50;1649712;86;21094;-79
2021/06/22 07:58:26;;;;;;;54.53;10.00;;;;;;;23.23;100.00;100912.01;1654440;86;21140;-80
2021/06/22 08:00:55;;;;;;;20.90;6.75;;;;;;;23.30;100.00;100911.63;1654248;86;21497;-80
2021/06/22 08:03:24;;;;;;;25.55;7.35;;;;;;;23.45;100.00;100914.38;1654737;86;20895;-80
2021/06/22 08:05:52;;;;;;;17.23;6.78;;;;;;;23.55;100.00;100913.60;1650359;86;21123;-81
2021/06/22 08:08:22;;;;;;;14.45;5.70;;;;;;;23.75;100.00;100911.27;1617488;88;21034;-79
2021/06/22 08:10:52;;;;;;;84.17;13.28;;;;;;;23.92;100.00;100914.09;1627532;88;21064;-79
2021/06/22 08:13:19;;;;;;;36.50;8.15;;;;;;;24.03;100.00;100906.50;1646199;87;21005;-80
2021/06/22 08:15:49;;;;;;;26.15;7.67;;;;;;;24.09;100.00;100911.08;1652372;86;20993;-87
2021/06/22 08:18:19;;;;;;;21.65;6.53;;;;;;;24.20;100.00;100911.98;1654453;86;21172;-89
2021/06/22 08:20:50;;;;;;;15.13;5.50;;;;;;;24.33;100.00;100899.41;1654776;86;21025;-82
2021/06/22 08:23:19;;;;;;;12.37;5.35;;;;;;;24.33;100.00;100894.10;1654534;86;21088;-83
2021/06/22 08:25:47;;;;;;;8.93;5.65;;;;;;;24.34;100.00;100889.13;1654087;86;21180;-77
2021/06/22 08:28:15;;;;;;;14.75;6.00;;;;;;;24.39;99.97;100896.51;1654514;86;21071;-85
2021/06/22 08:30:42;;;;;;;16.17;6.40;;;;;;;24.39;100.00;100889.38;1654419;86;21947;-83
2021/06/22 08:33:12;;;;;;;12.33;6.05;;;;;;;24.45;98.45;100894.44;1654239;86;21093;-81
2021/06/22 08:35:39;;;;;;;10.45;5.30;;;;;;;24.23;96.65;100887.75;1653434;86;21132;-80
2021/06/22 08:38:38;;;;;;;18.75;6.25;;;;;;;24.01;97.15;100889.97;1653895;86;21153;-84
2021/06/22 08:40:58;;;;;;;10.10;6.10;;;;;;;24.07;100.00;100887.91;1702866;83;20967;-86
2021/06/22 08:43:26;;;;;;;25.50;5.65;;;;;;;24.07;100.00;100887.91;1718095;81;21732;-79
2021/06/22 08:45:54;;;;;;;23.15;6.03;;;;;;;24.25;96.30;100897.36;1734122;82;21434;-85
2021/06/22 08:48:24;;;;;;;14.25;5.45;;;;;;;24.27;93.83;100893.52;1726922;82;21061;-81
2021/06/22 08:50:51;;;;;;;13.75;5.90;;;;;;;24.24;93.11;100896.53;1723341;82;20922;-79
2021/06/22 08:53:21;;;;;;;9.93;5.28;;;;;;;24.12;93.25;100905.44;1702362;82;21025;-81
2021/06/22 08:55:51;;;;;;;13.13;5.33;;;;;;;24.15;93.19;100906.39;1729004;82;21442;-80
2021/06/22 08:58:19;;;;;;;11.22;5.20;;;;;;;24.20;92.84;100904.53;1727680;82;21042;-85
2021/06/22 09:00:51;;;;;;;14.83;5.35;;;;;;;24.20;89.06;100914.64;1704149;84;21096;-90
2021/06/22 09:03:24;;;;;;;10.50;4.95;;;;;;;24.16;88.86;100919.98;1714285;82;20991;-80
2021/06/22 09:05:56;;;;;;;15.05;4.67;;;;;;;24.19;88.71;100921.44;1733362;82;20931;-81
2021/06/22 09:08:32;;;;;;;14.20;5.70;;;;;;;24.15;89.81;100916.20;1733553;82;21113;-83
2021/06/22 09:11:09;;;;;;;20.10;7.62;;;;;;;24.08;91.51;100915.25;1733968;82;21002;-86
2021/06/22 09:13:39;;;;;;;11.60;5.12;;;;;;;24.05;93.39;100923.57;1733704;82;21097;-88
2021/06/22 09:16:11;;;;;;;16.02;5.65;;;;;;;24.11;94.05;100927.67;1733523;82;21088;-85
2021/06/22 09:18:43;;;;;;;17.67;5.85;;;;;;;24.15;94.17;100934.77;1701328;82;20926;-82
2021/06/22 09:21:22;;;;;;;12.53;6.03;;;;;;;24.12;94.58;100939.91;1733589;82;21066;-85
2021/06/22 09:23:53;;;;;;;20.00;6.83;;;;;;;24.08;96.15;100926.69;1733168;82;21127;-81
2021/06/22 09:26:31;;;;;;;19.52;6.95;;;;;;;24.05;96.31;100933.68;1733354;82;20993;-87
2021/06/22 09:29:13;;;;;;;15.43;5.95;;;;;;;24.03;96.13;100933.02;1733556;82;20942;-87
2021/06/22 09:31:58;;;;;;;15.15;6.62;;;;;;;24.03;95.78;100928.21;1733501;82;21018;-85
2021/06/22 09:34:28;;;;;;;18.90;7.25;;;;;;;24.04;98.16;100927.22;1733237;82;21138;-86
2021/06/22 09:36:57;;;;;;;21.00;7.10;;;;;;;24.09;97.99;100926.19;1733710;82;21025;-84
2021/06/22 09:39:27;;;;;;;20.80;7.78;;;;;;;24.10;97.97;100923.34;1733543;82;21003;-86
2021/06/22 09:41:56;;;;;;;20.07;7.77;;;;;;;24.21;98.89;100926.91;1734006;82;21551;-84
2021/06/22 09:44:30;;;;;;;19.17;7.62;;;;;;;24.32;97.13;100925.60;1733402;82;21272;-82
2021/06/22 09:47:00;;;;;;;30.00;7.60;;;;;;;24.43;98.15;100925.65;1733616;82;21147;-84
2021/06/22 09:49:36;;;;;;;21.85;6.40;;;;;;;24.60;97.79;100929.76;1734026;82;20997;-86
2021/06/22 09:52:09;;;;;;;24.02;6.37;;;;;;;24.80;93.82;100928.14;1732117;82;20959;-86
2021/06/22 09:54:48;;;;;;;15.03;6.33;;;;;;;24.92;92.83;100923.22;1733457;82;37993;-82
2021/06/22 09:57:21;;;;;;;28.70;7.22;;;;;;;25.16;93.11;100932.97;1711934;82;20931;-83
2021/06/22 10:00:10;;;;;;;25.77;7.28;;;;;;;25.34;89.49;100931.68;1732967;82;21807;-86
2021/06/22 10:02:52;;;;;;;17.07;6.45;;;;;;;25.39;87.17;100930.12;1733531;82;21497;-88
2021/06/22 10:05:19;;;;;;;17.95;5.62;;;;;;;25.32;86.33;100935.88;1734052;82;20954;-81
2021/06/22 10:08:00;;;;;;;19.62;6.25;;;;;;;25.36;84.81;100932.33;1733783;82;20927;-89
2021/06/22 10:10:47;;;;;;;16.93;5.17;;;;;;;25.37;85.02;100937.97;1733306;82;21664;-85
2021/06/22 10:13:42;;;;;;;10.93;4.50;;;;;;;25.35;84.25;100937.32;1680339;82;21204;-83
2021/06/22 10:16:22;;;;;;;11.50;5.72;;;;;;;25.26;82.80;100941.95;1734704;82;21006;-85
2021/06/22 10:18:50;;;;;;;14.35;5.75;;;;;;;25.19;84.12;100939.73;1734228;82;21502;-81
2021/06/22 10:21:18;;;;;;;15.43;5.62;;;;;;;25.23;85.03;100945.81;1733573;82;20966;-82
2021/06/22 10:23:50;;;;;;;15.72;5.65;;;;;;;25.14;84.65;100948.25;1733834;82;21422;-88
2021/06/22 10:26:20;;;;;;;14.13;5.60;;;;;;;25.05;84.81;100951.20;1732072;82;21990;-82
2021/06/22 10:28:47;;;;;;;14.45;5.40;;;;;;;25.01;85.68;100943.33;1733467;82;20915;-82
2021/06/22 10:31:14;;;;;;;20.45;5.33;;;;;;;24.96;84.61;100937.23;1733464;82;20971;-82
2021/06/22 10:33:42;;;;;;;11.83;5.00;;;;;;;24.90;84.35;100930.03;1714339;82;21044;-88
2021/06/22 10:36:09;;;;;;;10.80;5.50;;;;;;;24.81;83.90;100930.30;1712938;82;21064;-78
2021/06/22 10:38:39;;;;;;;14.53;5.60;;;;;;;24.78;85.01;100930.17;1722207;82;21538;-86
2021/06/22 10:41:06;;;;;;;17.15;5.55;;;;;;;24.75;84.81;100926.56;1726930;82;20904;-84
2021/06/22 10:43:38;;;;;;;14.83;5.22;;;;;;;24.80;85.36;100929.47;1693721;84;21434;-82
2021/06/22 10:46:06;;;;;;;11.78;5.12;;;;;;;24.81;84.56;100927.64;1683965;85;24002;-81
2021/06/22 10:48:49;;;;;;;14.35;5.22;;;;;;;24.85;84.52;100930.28;1684473;85;21399;-81
2021/06/22 10:51:31;;;;;;;12.35;4.83;;;;;;;24.83;82.56;100928.30;1684253;84;21081;-85
2021/06/22 10:54:02;;;;;;;14.55;5.20;;;;;;;24.84;80.15;100927.30;1686576;83;20912;-88
2021/06/22 10:56:31;;;;;;;10.63;4.65;;;;;;;24.84;80.01;100925.47;1698500;83;20991;-86
2021/06/22 10:59:20;;;;;;;11.65;4.72;;;;;;;24.89;81.13;100924.92;1712435;83;20993;-85
2021/06/22 11:01:56;;;;;;;18.92;4.10;;;;;;;24.99;81.24;100926.73;1712176;83;21541;-81
2021/06/22 11:04:27;;;;;;;12.80;5.03;;;;;;;25.10;80.58;100924.93;1713010;83;21114;-85
2021/06/22 11:07:17;;;;;;;12.05;5.03;;;;;;;25.19;80.23;100914.49;1712793;83;20928;-88
2021/06/22 11:10:06;;;;;;;9.75;4.83;;;;;;;25.27;80.21;100912.52;1713154;82;21006;-80
2021/06/22 11:12:53;;;;;;;12.13;4.97;;;;;;;25.41;79.68;100913.47;1713031;82;20991;-85
2021/06/22 11:15:20;;;;;;;16.42;4.40;;;;;;;25.50;80.92;100917.66;1713444;83;21067;-80
2021/06/22 11:17:56;;;;;;;10.75;4.28;;;;;;;25.70;82.16;100916.49;1712587;83;21542;-78
2021/06/22 11:20:29;;;;;;;11.38;4.75;;;;;;;25.77;81.24;100913.38;1712851;82;21314;-96
2021/06/22 11:23:10;;;;;;;9.28;4.25;;;;;;;25.68;81.01;100907.91;1712358;83;21578;-88